VA95 weather

CLOSED Spring Valley Airport
Powhatan, Virginia, United States

Public forecast

Using degrees Fahrenheit for public forecast. Weather courtesy of forecast.io.

METAR (pilot weather report)

Closest report is Chesterfield County Airport, 17.4 nm (32.2 km) SE. Retrieved 2019/06/25 12:56 UTC (23 minutes ago):

KFCI 251256Z AUTO 32009KT 10SM CLR 27/21 A2989 RMK AO2 SLP130 T02670206

TAF (pilot weather forecast)

Closest forecast is Richmond International Airport, 23.5 nm (43.6 km) ESE. Retrieved 2019/06/25 12:22 UTC (57 minutes ago):

TAF KRIC 251120Z 2512/2612 27009KT P6SM SCT250 FM251400 32007KT P6SM SCT040 BKN250 FM260000 26004KT P6SM SKC